sensor_id;sensor_type;location;lat;lon;timestamp;temperature;humidity
55693;DHT22;41590;53.366;5.212;2022-09-21T00:00:31;11.40;99.90
55693;DHT22;41590;53.366;5.212;2022-09-21T00:02:58;11.40;99.90
55693;DHT22;41590;53.366;5.212;2022-09-21T00:09:06;11.50;99.90
55693;DHT22;41590;53.366;5.212;2022-09-21T00:11:36;11.50;99.90
55693;DHT22;41590;53.366;5.212;2022-09-21T00:14:21;11.50;99.90
55693;DHT22;41590;53.366;5.212;2022-09-21T00:16:47;11.50;99.90
55693;DHT22;41590;53.366;5.212;2022-09-21T00:22:41;11.50;99.90
55693;DHT22;41590;53.366;5.212;2022-09-21T00:25:39;11.50;99.90
55693;DHT22;41590;53.366;5.212;2022-09-21T00:28:33;11.50;99.90
55693;DHT22;41590;53.366;5.212;2022-09-21T00:31:14;11.50;99.90
55693;DHT22;41590;53.366;5.212;2022-09-21T00:33:44;11.50;99.90
55693;DHT22;41590;53.366;5.212;2022-09-21T00:36:27;11.60;99.90
55693;DHT22;41590;53.366;5.212;2022-09-21T00:38:59;11.60;99.90
55693;DHT22;41590;53.366;5.212;2022-09-21T00:41:33;11.60;99.90
55693;DHT22;41590;53.366;5.212;2022-09-21T00:47:09;11.60;99.90
55693;DHT22;41590;53.366;5.212;2022-09-21T00:53:14;11.50;99.90
55693;DHT22;41590;53.366;5.212;2022-09-21T00:56:00;11.60;99.90
55693;DHT22;41590;53.366;5.212;2022-09-21T00:58:45;11.50;99.90
55693;DHT22;41590;53.366;5.212;2022-09-21T01:01:16;11.50;99.90
55693;DHT22;41590;53.366;5.212;2022-09-21T01:04:04;11.50;99.90
55693;DHT22;41590;53.366;5.212;2022-09-21T01:06:36;11.50;99.90
55693;DHT22;41590;53.366;5.212;2022-09-21T01:27:51;11.00;99.90
55693;DHT22;41590;53.366;5.212;2022-09-21T01:30:42;10.90;99.90
55693;DHT22;41590;53.366;5.212;2022-09-21T01:33:30;10.90;99.90
55693;DHT22;41590;53.366;5.212;2022-09-21T01:36:05;10.90;99.90
55693;DHT22;41590;53.366;5.212;2022-09-21T01:44:39;10.90;99.90
55693;DHT22;41590;53.366;5.212;2022-09-21T01:47:16;10.80;99.90
55693;DHT22;41590;53.366;5.212;2022-09-21T02:00:18;10.70;99.90
55693;DHT22;41590;53.366;5.212;2022-09-21T02:05:54;10.60;99.90
55693;DHT22;41590;53.366;5.212;2022-09-21T02:08:22;10.60;99.90
55693;DHT22;41590;53.366;5.212;2022-09-21T02:10:53;10.50;99.90
55693;DHT22;41590;53.366;5.212;2022-09-21T02:13:31;10.40;99.90
55693;DHT22;41590;53.366;5.212;2022-09-21T02:22:29;10.30;99.90
55693;DHT22;41590;53.366;5.212;2022-09-21T02:25:17;10.20;99.90
55693;DHT22;41590;53.366;5.212;2022-09-21T02:34:59;10.00;99.90
55693;DHT22;41590;53.366;5.212;2022-09-21T02:40:50;9.90;99.90
55693;DHT22;41590;53.366;5.212;2022-09-21T02:47:15;9.80;99.90
55693;DHT22;41590;53.366;5.212;2022-09-21T02:50:00;9.80;99.90
55693;DHT22;41590;53.366;5.212;2022-09-21T02:52:52;9.80;99.90
55693;DHT22;41590;53.366;5.212;2022-09-21T02:55:30;9.70;99.90
55693;DHT22;41590;53.366;5.212;2022-09-21T02:58:20;9.70;99.90
55693;DHT22;41590;53.366;5.212;2022-09-21T03:01:09;9.70;99.90
55693;DHT22;41590;53.366;5.212;2022-09-21T03:03:41;9.70;99.90
55693;DHT22;41590;53.366;5.212;2022-09-21T03:06:13;9.80;99.90
55693;DHT22;41590;53.366;5.212;2022-09-21T03:09:12;9.70;99.90
55693;DHT22;41590;53.366;5.212;2022-09-21T03:11:48;9.60;99.90
55693;DHT22;41590;53.366;5.212;2022-09-21T03:17:46;9.60;99.90
55693;DHT22;41590;53.366;5.212;2022-09-21T03:20:49;9.60;99.90
55693;DHT22;41590;53.366;5.212;2022-09-21T03:23:21;9.60;99.90
55693;DHT22;41590;53.366;5.212;2022-09-21T03:25:50;9.50;99.90
55693;DHT22;41590;53.366;5.212;2022-09-21T03:31:29;9.50;99.90
55693;DHT22;41590;53.366;5.212;2022-09-21T03:37:36;9.30;99.90
55693;DHT22;41590;53.366;5.212;2022-09-21T03:43:43;9.30;99.90
55693;DHT22;41590;53.366;5.212;2022-09-21T03:46:09;9.20;99.90
55693;DHT22;41590;53.366;5.212;2022-09-21T03:48:52;9.20;99.90
55693;DHT22;41590;53.366;5.212;2022-09-21T03:51:35;9.30;99.90
55693;DHT22;41590;53.366;5.212;2022-09-21T03:54:05;9.10;99.90
55693;DHT22;41590;53.366;5.212;2022-09-21T03:56:37;9.00;99.90
55693;DHT22;41590;53.366;5.212;2022-09-21T03:59:04;9.00;99.90
55693;DHT22;41590;53.366;5.212;2022-09-21T04:01:31;8.90;99.90
55693;DHT22;41590;53.366;5.212;2022-09-21T04:03:59;9.00;99.90
55693;DHT22;41590;53.366;5.212;2022-09-21T04:06:27;9.00;99.90
55693;DHT22;41590;53.366;5.212;2022-09-21T04:09:06;8.90;99.90
55693;DHT22;41590;53.366;5.212;2022-09-21T04:11:51;8.90;99.90
55693;DHT22;41590;53.366;5.212;2022-09-21T04:14:19;8.90;99.90
55693;DHT22;41590;53.366;5.212;2022-09-21T04:16:46;8.90;99.90
55693;DHT22;41590;53.366;5.212;2022-09-21T04:19:17;8.90;99.90
55693;DHT22;41590;53.366;5.212;2022-09-21T04:28:26;8.90;99.90
55693;DHT22;41590;53.366;5.212;2022-09-21T04:34:19;9.00;99.90
55693;DHT22;41590;53.366;5.212;2022-09-21T04:36:45;9.00;99.90
55693;DHT22;41590;53.366;5.212;2022-09-21T04:39:15;9.10;99.90
55693;DHT22;41590;53.366;5.212;2022-09-21T04:42:11;9.10;99.90
55693;DHT22;41590;53.366;5.212;2022-09-21T04:45:13;9.10;99.90
55693;DHT22;41590;53.366;5.212;2022-09-21T04:54:51;9.30;99.90
55693;DHT22;41590;53.366;5.212;2022-09-21T04:57:38;9.20;99.90
55693;DHT22;41590;53.366;5.212;2022-09-21T05:00:38;9.20;99.90
55693;DHT22;41590;53.366;5.212;2022-09-21T05:03:33;9.40;99.90
55693;DHT22;41590;53.366;5.212;2022-09-21T05:06:42;9.40;99.90
55693;DHT22;41590;53.366;5.212;2022-09-21T05:16:04;9.60;99.90
55693;DHT22;41590;53.366;5.212;2022-09-21T05:18:57;9.70;99.90
55693;DHT22;41590;53.366;5.212;2022-09-21T05:25:55;9.70;99.90
55693;DHT22;41590;53.366;5.212;2022-09-21T05:33:41;9.90;99.90
55693;DHT22;41590;53.366;5.212;2022-09-21T05:43:52;10.10;99.90
55693;DHT22;41590;53.366;5.212;2022-09-21T06:15:51;10.80;99.90
55693;DHT22;41590;53.366;5.212;2022-09-21T06:18:54;10.90;99.90
55693;DHT22;41590;53.366;5.212;2022-09-21T06:21:46;11.10;99.90
55693;DHT22;41590;53.366;5.212;2022-09-21T06:28:13;11.20;99.90
55693;DHT22;41590;53.366;5.212;2022-09-21T06:31:18;11.40;99.90
55693;DHT22;41590;53.366;5.212;2022-09-21T06:38:42;11.60;99.90
55693;DHT22;41590;53.366;5.212;2022-09-21T06:41:33;11.70;99.90
55693;DHT22;41590;53.366;5.212;2022-09-21T06:44:01;11.90;99.90
55693;DHT22;41590;53.366;5.212;2022-09-21T06:46:40;12.00;99.90
55693;DHT22;41590;53.366;5.212;2022-09-21T06:49:14;12.10;99.90
55693;DHT22;41590;53.366;5.212;2022-09-21T06:54:43;12.40;99.90
55693;DHT22;41590;53.366;5.212;2022-09-21T06:57:08;12.60;99.90
55693;DHT22;41590;53.366;5.212;2022-09-21T06:59:51;12.60;99.90
55693;DHT22;41590;53.366;5.212;2022-09-21T07:02:26;12.70;99.90
55693;DHT22;41590;53.366;5.212;2022-09-21T07:05:14;12.90;99.90
55693;DHT22;41590;53.366;5.212;2022-09-21T07:07:44;13.00;99.90
55693;DHT22;41590;53.366;5.212;2022-09-21T07:10:10;13.20;99.90
55693;DHT22;41590;53.366;5.212;2022-09-21T07:12:36;13.30;99.90
55693;DHT22;41590;53.366;5.212;2022-09-21T07:15:20;13.40;99.90
55693;DHT22;41590;53.366;5.212;2022-09-21T07:18:23;13.50;99.90
55693;DHT22;41590;53.366;5.212;2022-09-21T07:21:06;13.60;99.90
55693;DHT22;41590;53.366;5.212;2022-09-21T07:30:51;13.60;99.90
55693;DHT22;41590;53.366;5.212;2022-09-21T07:45:15;13.50;99.90
55693;DHT22;41590;53.366;5.212;2022-09-21T07:54:57;13.60;99.90
55693;DHT22;41590;53.366;5.212;2022-09-21T07:57:39;13.70;99.90
55693;DHT22;41590;53.366;5.212;2022-09-21T08:00:32;13.70;99.90
55693;DHT22;41590;53.366;5.212;2022-09-21T08:03:01;13.80;99.90
55693;DHT22;41590;53.366;5.212;2022-09-21T08:05:30;13.80;99.90
55693;DHT22;41590;53.366;5.212;2022-09-21T08:07:57;13.90;99.90
55693;DHT22;41590;53.366;5.212;2022-09-21T08:10:38;14.00;99.90
55693;DHT22;41590;53.366;5.212;2022-09-21T08:13:14;14.10;99.90
55693;DHT22;41590;53.366;5.212;2022-09-21T08:16:00;14.20;99.90
55693;DHT22;41590;53.366;5.212;2022-09-21T08:18:38;14.30;99.90
55693;DHT22;41590;53.366;5.212;2022-09-21T08:21:20;14.40;99.90
55693;DHT22;41590;53.366;5.212;2022-09-21T08:23:47;14.50;99.90
55693;DHT22;41590;53.366;5.212;2022-09-21T08:26:22;14.50;99.90
55693;DHT22;41590;53.366;5.212;2022-09-21T08:28:55;14.60;99.90
55693;DHT22;41590;53.366;5.212;2022-09-21T08:31:28;14.70;99.90
55693;DHT22;41590;53.366;5.212;2022-09-21T08:33:55;14.80;99.90
55693;DHT22;41590;53.366;5.212;2022-09-21T08:36:23;14.90;99.90
55693;DHT22;41590;53.366;5.212;2022-09-21T08:38:57;14.90;99.90
55693;DHT22;41590;53.366;5.212;2022-09-21T08:44:53;15.10;99.90
55693;DHT22;41590;53.366;5.212;2022-09-21T08:50:45;15.50;99.90
55693;DHT22;41590;53.366;5.212;2022-09-21T08:53:40;15.70;99.90
55693;DHT22;41590;53.366;5.212;2022-09-21T08:56:11;15.70;99.90
55693;DHT22;41590;53.366;5.212;2022-09-21T08:58:38;15.80;99.90
55693;DHT22;41590;53.366;5.212;2022-09-21T09:05:02;16.00;99.90
55693;DHT22;41590;53.366;5.212;2022-09-21T09:14:08;16.40;99.90
55693;DHT22;41590;53.366;5.212;2022-09-21T09:19:56;16.70;99.90
55693;DHT22;41590;53.366;5.212;2022-09-21T09:22:45;16.80;99.90
55693;DHT22;41590;53.366;5.212;2022-09-21T09:25:20;16.90;99.90
55693;DHT22;41590;53.366;5.212;2022-09-21T09:27:53;17.10;99.90
55693;DHT22;41590;53.366;5.212;2022-09-21T09:30:27;17.00;99.90
55693;DHT22;41590;53.366;5.212;2022-09-21T09:33:22;17.10;99.90
55693;DHT22;41590;53.366;5.212;2022-09-21T09:39:33;17.30;99.90
55693;DHT22;41590;53.366;5.212;2022-09-21T09:50:38;17.60;99.90
55693;DHT22;41590;53.366;5.212;2022-09-21T09:53:21;17.60;99.90
55693;DHT22;41590;53.366;5.212;2022-09-21T09:56:07;17.60;99.90
55693;DHT22;41590;53.366;5.212;2022-09-21T09:58:53;17.70;99.90
55693;DHT22;41590;53.366;5.212;2022-09-21T10:04:28;17.70;99.90
55693;DHT22;41590;53.366;5.212;2022-09-21T10:06:56;17.80;99.90
55693;DHT22;41590;53.366;5.212;2022-09-21T10:09:55;17.90;99.90
55693;DHT22;41590;53.366;5.212;2022-09-21T10:12:33;18.00;99.90
55693;DHT22;41590;53.366;5.212;2022-09-21T10:15:01;18.00;99.90
55693;DHT22;41590;53.366;5.212;2022-09-21T10:20:35;18.00;99.90
55693;DHT22;41590;53.366;5.212;2022-09-21T10:23:18;18.10;99.90
55693;DHT22;41590;53.366;5.212;2022-09-21T10:29:38;18.30;99.90
55693;DHT22;41590;53.366;5.212;2022-09-21T10:32:24;18.20;99.90
55693;DHT22;41590;53.366;5.212;2022-09-21T10:35:12;18.30;99.90
55693;DHT22;41590;53.366;5.212;2022-09-21T10:38:10;18.40;99.90
55693;DHT22;41590;53.366;5.212;2022-09-21T10:40:42;18.40;99.90
55693;DHT22;41590;53.366;5.212;2022-09-21T10:43:34;18.50;99.90
55693;DHT22;41590;53.366;5.212;2022-09-21T10:46:05;18.50;99.90
55693;DHT22;41590;53.366;5.212;2022-09-21T10:48:37;18.50;99.90
55693;DHT22;41590;53.366;5.212;2022-09-21T10:51:27;18.50;99.90
55693;DHT22;41590;53.366;5.212;2022-09-21T10:57:27;18.90;99.90
55693;DHT22;41590;53.366;5.212;2022-09-21T11:16:32;18.80;99.90
55693;DHT22;41590;53.366;5.212;2022-09-21T11:22:22;18.80;99.90
55693;DHT22;41590;53.366;5.212;2022-09-21T11:24:58;18.80;99.90
55693;DHT22;41590;53.366;5.212;2022-09-21T11:28:03;18.80;99.90
55693;DHT22;41590;53.366;5.212;2022-09-21T11:48:33;18.90;99.90
55693;DHT22;41590;53.366;5.212;2022-09-21T11:57:42;18.80;99.90
55693;DHT22;41590;53.366;5.212;2022-09-21T12:14:55;19.00;99.90
55693;DHT22;41590;53.366;5.212;2022-09-21T12:20:49;19.00;99.90
55693;DHT22;41590;53.366;5.212;2022-09-21T12:23:47;18.90;99.90
55693;DHT22;41590;53.366;5.212;2022-09-21T12:26:40;19.00;99.90
55693;DHT22;41590;53.366;5.212;2022-09-21T12:47:11;19.70;99.90
55693;DHT22;41590;53.366;5.212;2022-09-21T12:50:01;19.90;99.90
55693;DHT22;41590;53.366;5.212;2022-09-21T12:52:56;19.90;98.30
55693;DHT22;41590;53.366;5.212;2022-09-21T13:09:47;20.20;96.60
55693;DHT22;41590;53.366;5.212;2022-09-21T13:12:25;20.30;97.40
55693;DHT22;41590;53.366;5.212;2022-09-21T13:15:23;20.30;96.80
55693;DHT22;41590;53.366;5.212;2022-09-21T13:18:28;20.10;98.00
55693;DHT22;41590;53.366;5.212;2022-09-21T13:20:53;20.20;98.00
55693;DHT22;41590;53.366;5.212;2022-09-21T13:23:35;20.30;98.70
55693;DHT22;41590;53.366;5.212;2022-09-21T13:34:43;20.50;97.20
55693;DHT22;41590;53.366;5.212;2022-09-21T13:37:29;20.40;95.80
55693;DHT22;41590;53.366;5.212;2022-09-21T13:42:47;20.60;97.20
55693;DHT22;41590;53.366;5.212;2022-09-21T13:47:55;20.50;95.80
55693;DHT22;41590;53.366;5.212;2022-09-21T13:50:39;20.40;96.10
55693;DHT22;41590;53.366;5.212;2022-09-21T13:53:35;20.40;96.70
55693;DHT22;41590;53.366;5.212;2022-09-21T13:56:20;20.40;95.20
55693;DHT22;41590;53.366;5.212;2022-09-21T13:58:51;20.40;95.80
55693;DHT22;41590;53.366;5.212;2022-09-21T14:01:22;20.20;94.40
55693;DHT22;41590;53.366;5.212;2022-09-21T14:03:56;20.30;93.90
55693;DHT22;41590;53.366;5.212;2022-09-21T14:06:29;20.40;94.80
55693;DHT22;41590;53.366;5.212;2022-09-21T14:09:16;20.30;94.40
55693;DHT22;41590;53.366;5.212;2022-09-21T14:11:44;20.10;94.30
55693;DHT22;41590;53.366;5.212;2022-09-21T14:14:31;20.10;94.80
55693;DHT22;41590;53.366;5.212;2022-09-21T14:16:59;20.20;95.00
55693;DHT22;41590;53.366;5.212;2022-09-21T14:27:27;20.30;93.60
55693;DHT22;41590;53.366;5.212;2022-09-21T14:29:59;20.30;93.40
55693;DHT22;41590;53.366;5.212;2022-09-21T14:32:36;20.40;94.10
55693;DHT22;41590;53.366;5.212;2022-09-21T14:35:14;20.30;93.50
55693;DHT22;41590;53.366;5.212;2022-09-21T14:37:49;20.30;93.70
55693;DHT22;41590;53.366;5.212;2022-09-21T14:40:22;20.30;94.20
55693;DHT22;41590;53.366;5.212;2022-09-21T14:42:58;20.20;94.30
55693;DHT22;41590;53.366;5.212;2022-09-21T14:51:51;20.10;94.40
55693;DHT22;41590;53.366;5.212;2022-09-21T14:57:22;19.90;94.60
55693;DHT22;41590;53.366;5.212;2022-09-21T15:00:20;19.80;93.70
55693;DHT22;41590;53.366;5.212;2022-09-21T15:05:49;19.70;94.30
55693;DHT22;41590;53.366;5.212;2022-09-21T15:11:15;19.50;95.00
55693;DHT22;41590;53.366;5.212;2022-09-21T15:16:50;19.20;94.60
55693;DHT22;41590;53.366;5.212;2022-09-21T15:19:28;19.20;96.00
55693;DHT22;41590;53.366;5.212;2022-09-21T15:22:10;19.10;95.40
55693;DHT22;41590;53.366;5.212;2022-09-21T15:24:48;18.90;95.50
55693;DHT22;41590;53.366;5.212;2022-09-21T15:27:16;18.80;96.10
55693;DHT22;41590;53.366;5.212;2022-09-21T15:29:44;18.80;96.00
55693;DHT22;41590;53.366;5.212;2022-09-21T15:32:38;18.70;96.30
55693;DHT22;41590;53.366;5.212;2022-09-21T15:35:17;18.60;96.60
55693;DHT22;41590;53.366;5.212;2022-09-21T15:37:45;18.50;96.90
55693;DHT22;41590;53.366;5.212;2022-09-21T15:40:17;18.40;97.50
55693;DHT22;41590;53.366;5.212;2022-09-21T15:45:46;18.30;98.50
55693;DHT22;41590;53.366;5.212;2022-09-21T15:48:16;18.20;98.80
55693;DHT22;41590;53.366;5.212;2022-09-21T15:50:49;18.00;99.30
55693;DHT22;41590;53.366;5.212;2022-09-21T15:53:24;17.80;99.60
55693;DHT22;41590;53.366;5.212;2022-09-21T15:55:59;17.70;99.90
55693;DHT22;41590;53.366;5.212;2022-09-21T15:58:51;17.50;99.90
55693;DHT22;41590;53.366;5.212;2022-09-21T16:01:36;17.40;99.90
55693;DHT22;41590;53.366;5.212;2022-09-21T16:04:20;17.30;99.90
55693;DHT22;41590;53.366;5.212;2022-09-21T16:09:50;17.10;99.90
55693;DHT22;41590;53.366;5.212;2022-09-21T16:15:24;16.90;99.90
55693;DHT22;41590;53.366;5.212;2022-09-21T16:18:03;16.70;99.90
55693;DHT22;41590;53.366;5.212;2022-09-21T16:20:46;16.70;99.90
55693;DHT22;41590;53.366;5.212;2022-09-21T16:23:18;16.60;99.90
55693;DHT22;41590;53.366;5.212;2022-09-21T16:25:55;16.50;99.90
55693;DHT22;41590;53.366;5.212;2022-09-21T16:28:37;16.40;99.90
55693;DHT22;41590;53.366;5.212;2022-09-21T16:31:32;16.30;99.90
55693;DHT22;41590;53.366;5.212;2022-09-21T16:34:03;16.20;99.90
55693;DHT22;41590;53.366;5.212;2022-09-21T16:36:33;16.10;99.90
55693;DHT22;41590;53.366;5.212;2022-09-21T16:39:09;16.00;99.90
55693;DHT22;41590;53.366;5.212;2022-09-21T16:41:40;16.00;99.90
55693;DHT22;41590;53.366;5.212;2022-09-21T16:44:14;16.00;99.90
55693;DHT22;41590;53.366;5.212;2022-09-21T16:46:46;15.90;99.90
55693;DHT22;41590;53.366;5.212;2022-09-21T16:49:16;15.90;99.90
55693;DHT22;41590;53.366;5.212;2022-09-21T16:51:48;15.80;99.90
55693;DHT22;41590;53.366;5.212;2022-09-21T16:54:18;15.70;99.90
55693;DHT22;41590;53.366;5.212;2022-09-21T16:56:54;15.60;99.90
55693;DHT22;41590;53.366;5.212;2022-09-21T16:59:22;15.50;99.90
55693;DHT22;41590;53.366;5.212;2022-09-21T17:01:50;15.30;99.90
55693;DHT22;41590;53.366;5.212;2022-09-21T17:04:27;15.30;99.90
55693;DHT22;41590;53.366;5.212;2022-09-21T17:06:54;15.20;99.90
55693;DHT22;41590;53.366;5.212;2022-09-21T17:09:29;15.10;99.90
55693;DHT22;41590;53.366;5.212;2022-09-21T17:11:57;15.00;99.90
55693;DHT22;41590;53.366;5.212;2022-09-21T17:14:30;14.80;99.90
55693;DHT22;41590;53.366;5.212;2022-09-21T17:17:16;14.80;99.90
55693;DHT22;41590;53.366;5.212;2022-09-21T17:19:44;14.60;99.90
55693;DHT22;41590;53.366;5.212;2022-09-21T17:22:11;14.50;99.90
55693;DHT22;41590;53.366;5.212;2022-09-21T17:24:47;14.30;99.90
55693;DHT22;41590;53.366;5.212;2022-09-21T17:27:14;14.20;99.90
55693;DHT22;41590;53.366;5.212;2022-09-21T17:29:43;14.10;99.90
55693;DHT22;41590;53.366;5.212;2022-09-21T17:32:18;13.90;99.90
55693;DHT22;41590;53.366;5.212;2022-09-21T17:37:32;13.70;99.90
55693;DHT22;41590;53.366;5.212;2022-09-21T17:39:58;13.50;99.90
55693;DHT22;41590;53.366;5.212;2022-09-21T17:42:24;13.40;99.90
55693;DHT22;41590;53.366;5.212;2022-09-21T17:45:12;13.30;99.90
55693;DHT22;41590;53.366;5.212;2022-09-21T17:47:41;13.20;99.90
55693;DHT22;41590;53.366;5.212;2022-09-21T17:52:39;12.90;99.90
55693;DHT22;41590;53.366;5.212;2022-09-21T17:55:24;12.80;99.90
55693;DHT22;41590;53.366;5.212;2022-09-21T18:03:24;12.40;99.90
55693;DHT22;41590;53.366;5.212;2022-09-21T18:05:51;12.30;99.90
55693;DHT22;41590;53.366;5.212;2022-09-21T18:08:27;12.20;99.90
55693;DHT22;41590;53.366;5.212;2022-09-21T18:24:50;11.60;99.90
55693;DHT22;41590;53.366;5.212;2022-09-21T18:27:17;11.50;99.90
55693;DHT22;41590;53.366;5.212;2022-09-21T18:29:45;11.50;99.90
55693;DHT22;41590;53.366;5.212;2022-09-21T18:33:00;11.40;99.90
55693;DHT22;41590;53.366;5.212;2022-09-21T18:38:19;11.20;99.90
55693;DHT22;41590;53.366;5.212;2022-09-21T18:46:18;10.90;99.90
55693;DHT22;41590;53.366;5.212;2022-09-21T18:54:51;10.70;99.90
55693;DHT22;41590;53.366;5.212;2022-09-21T18:57:17;10.70;99.90
55693;DHT22;41590;53.366;5.212;2022-09-21T18:59:43;10.60;99.90
55693;DHT22;41590;53.366;5.212;2022-09-21T19:02:11;10.60;99.90
55693;DHT22;41590;53.366;5.212;2022-09-21T19:04:41;10.50;99.90
55693;DHT22;41590;53.366;5.212;2022-09-21T19:07:28;10.50;99.90
55693;DHT22;41590;53.366;5.212;2022-09-21T19:10:24;10.40;99.90
55693;DHT22;41590;53.366;5.212;2022-09-21T19:13:11;10.40;99.90
55693;DHT22;41590;53.366;5.212;2022-09-21T19:15:45;10.30;99.90
55693;DHT22;41590;53.366;5.212;2022-09-21T19:18:22;10.20;99.90
55693;DHT22;41590;53.366;5.212;2022-09-21T19:21:00;10.20;99.90
55693;DHT22;41590;53.366;5.212;2022-09-21T19:27:12;10.10;99.90
55693;DHT22;41590;53.366;5.212;2022-09-21T19:32:37;9.90;99.90
55693;DHT22;41590;53.366;5.212;2022-09-21T19:35:31;9.90;99.90
55693;DHT22;41590;53.366;5.212;2022-09-21T19:37:59;9.90;99.90
55693;DHT22;41590;53.366;5.212;2022-09-21T19:40:29;9.80;99.90
55693;DHT22;41590;53.366;5.212;2022-09-21T19:48:46;9.70;99.90
55693;DHT22;41590;53.366;5.212;2022-09-21T19:51:37;9.70;99.90
55693;DHT22;41590;53.366;5.212;2022-09-21T19:54:15;9.70;99.90
55693;DHT22;41590;53.366;5.212;2022-09-21T19:57:00;9.60;99.90
55693;DHT22;41590;53.366;5.212;2022-09-21T19:59:45;9.60;99.90
55693;DHT22;41590;53.366;5.212;2022-09-21T20:02:15;9.50;99.90
55693;DHT22;41590;53.366;5.212;2022-09-21T20:04:54;9.50;99.90
55693;DHT22;41590;53.366;5.212;2022-09-21T20:07:56;9.60;99.90
55693;DHT22;41590;53.366;5.212;2022-09-21T20:21:45;9.30;99.90
55693;DHT22;41590;53.366;5.212;2022-09-21T20:24:26;9.30;99.90
55693;DHT22;41590;53.366;5.212;2022-09-21T20:26:54;9.20;99.90
55693;DHT22;41590;53.366;5.212;2022-09-21T20:29:20;9.20;99.90
55693;DHT22;41590;53.366;5.212;2022-09-21T20:31:47;9.20;99.90
55693;DHT22;41590;53.366;5.212;2022-09-21T20:34:15;9.20;99.90
55693;DHT22;41590;53.366;5.212;2022-09-21T20:36:41;9.10;99.90
55693;DHT22;41590;53.366;5.212;2022-09-21T20:39:07;9.20;99.90
55693;DHT22;41590;53.366;5.212;2022-09-21T20:41:34;9.10;99.90
55693;DHT22;41590;53.366;5.212;2022-09-21T20:44:01;9.10;99.90
55693;DHT22;41590;53.366;5.212;2022-09-21T20:46:29;9.10;99.90
55693;DHT22;41590;53.366;5.212;2022-09-21T20:48:55;9.10;99.90
55693;DHT22;41590;53.366;5.212;2022-09-21T20:51:32;9.00;99.90
55693;DHT22;41590;53.366;5.212;2022-09-21T20:53:59;9.00;99.90
55693;DHT22;41590;53.366;5.212;2022-09-21T20:56:27;9.00;99.90
55693;DHT22;41590;53.366;5.212;2022-09-21T20:58:53;8.90;99.90
55693;DHT22;41590;53.366;5.212;2022-09-21T21:01:20;9.00;99.90
55693;DHT22;41590;53.366;5.212;2022-09-21T21:03:48;8.90;99.90
55693;DHT22;41590;53.366;5.212;2022-09-21T21:06:15;8.90;99.90
55693;DHT22;41590;53.366;5.212;2022-09-21T21:08:44;8.90;99.90
55693;DHT22;41590;53.366;5.212;2022-09-21T21:11:10;8.90;99.90
55693;DHT22;41590;53.366;5.212;2022-09-21T21:13:36;8.80;99.90
55693;DHT22;41590;53.366;5.212;2022-09-21T21:16:03;8.90;99.90
55693;DHT22;41590;53.366;5.212;2022-09-21T21:18:30;8.80;99.90
55693;DHT22;41590;53.366;5.212;2022-09-21T21:21:03;8.80;99.90
55693;DHT22;41590;53.366;5.212;2022-09-21T21:23:29;8.80;99.90
55693;DHT22;41590;53.366;5.212;2022-09-21T21:25:55;8.80;99.90
55693;DHT22;41590;53.366;5.212;2022-09-21T21:28:24;8.80;99.90
55693;DHT22;41590;53.366;5.212;2022-09-21T21:30:53;8.80;99.90
55693;DHT22;41590;53.366;5.212;2022-09-21T21:33:19;8.80;99.90
55693;DHT22;41590;53.366;5.212;2022-09-21T21:35:44;8.80;99.90
55693;DHT22;41590;53.366;5.212;2022-09-21T21:38:11;8.80;99.90
55693;DHT22;41590;53.366;5.212;2022-09-21T21:40:39;8.80;99.90
55693;DHT22;41590;53.366;5.212;2022-09-21T21:43:04;8.70;99.90
55693;DHT22;41590;53.366;5.212;2022-09-21T21:45:30;8.70;99.90
55693;DHT22;41590;53.366;5.212;2022-09-21T21:47:56;8.70;99.90
55693;DHT22;41590;53.366;5.212;2022-09-21T21:50:22;8.70;99.90
55693;DHT22;41590;53.366;5.212;2022-09-21T21:52:47;8.60;99.90
55693;DHT22;41590;53.366;5.212;2022-09-21T21:55:13;8.70;99.90
55693;DHT22;41590;53.366;5.212;2022-09-21T21:57:39;8.60;99.90
55693;DHT22;41590;53.366;5.212;2022-09-21T22:00:06;8.60;99.90
55693;DHT22;41590;53.366;5.212;2022-09-21T22:02:33;8.60;99.90
55693;DHT22;41590;53.366;5.212;2022-09-21T22:04:59;8.60;99.90
55693;DHT22;41590;53.366;5.212;2022-09-21T22:07:26;8.60;99.90
55693;DHT22;41590;53.366;5.212;2022-09-21T22:09:51;8.60;99.90
55693;DHT22;41590;53.366;5.212;2022-09-21T22:12:17;8.60;99.90
55693;DHT22;41590;53.366;5.212;2022-09-21T22:14:46;8.60;99.90
55693;DHT22;41590;53.366;5.212;2022-09-21T22:17:12;8.60;99.90
55693;DHT22;41590;53.366;5.212;2022-09-21T22:19:38;8.60;99.90
55693;DHT22;41590;53.366;5.212;2022-09-21T22:22:04;8.60;99.90
55693;DHT22;41590;53.366;5.212;2022-09-21T22:24:29;8.60;99.90
55693;DHT22;41590;53.366;5.212;2022-09-21T22:26:55;8.60;99.90
55693;DHT22;41590;53.366;5.212;2022-09-21T22:29:21;8.60;99.90
55693;DHT22;41590;53.366;5.212;2022-09-21T22:31:48;8.70;99.90
55693;DHT22;41590;53.366;5.212;2022-09-21T22:34:16;8.70;99.90
55693;DHT22;41590;53.366;5.212;2022-09-21T22:36:42;8.60;99.90
55693;DHT22;41590;53.366;5.212;2022-09-21T22:39:08;8.60;99.90
55693;DHT22;41590;53.366;5.212;2022-09-21T22:41:36;8.70;99.90
55693;DHT22;41590;53.366;5.212;2022-09-21T22:44:02;8.70;99.90
55693;DHT22;41590;53.366;5.212;2022-09-21T22:46:30;8.70;99.90
55693;DHT22;41590;53.366;5.212;2022-09-21T22:48:57;8.70;99.90
55693;DHT22;41590;53.366;5.212;2022-09-21T22:51:24;8.70;99.90
55693;DHT22;41590;53.366;5.212;2022-09-21T22:53:50;8.70;99.90
55693;DHT22;41590;53.366;5.212;2022-09-21T22:56:20;8.70;99.90
55693;DHT22;41590;53.366;5.212;2022-09-21T22:58:48;8.70;99.90
55693;DHT22;41590;53.366;5.212;2022-09-21T23:03:47;8.70;99.90
55693;DHT22;41590;53.366;5.212;2022-09-21T23:06:15;8.70;99.90
55693;DHT22;41590;53.366;5.212;2022-09-21T23:08:42;8.70;99.90
55693;DHT22;41590;53.366;5.212;2022-09-21T23:11:15;8.80;99.90
55693;DHT22;41590;53.366;5.212;2022-09-21T23:13:41;8.80;99.90
55693;DHT22;41590;53.366;5.212;2022-09-21T23:16:10;8.80;99.90
55693;DHT22;41590;53.366;5.212;2022-09-21T23:18:37;8.90;99.90
55693;DHT22;41590;53.366;5.212;2022-09-21T23:21:06;8.90;99.90
55693;DHT22;41590;53.366;5.212;2022-09-21T23:23:32;9.00;99.90
55693;DHT22;41590;53.366;5.212;2022-09-21T23:26:04;9.00;99.90
55693;DHT22;41590;53.366;5.212;2022-09-21T23:28:30;9.00;99.90
55693;DHT22;41590;53.366;5.212;2022-09-21T23:31:02;9.00;99.90
55693;DHT22;41590;53.366;5.212;2022-09-21T23:33:36;9.00;99.90
55693;DHT22;41590;53.366;5.212;2022-09-21T23:36:04;9.00;99.90
55693;DHT22;41590;53.366;5.212;2022-09-21T23:38:30;9.00;99.90
55693;DHT22;41590;53.366;5.212;2022-09-21T23:41:28;9.00;99.90
55693;DHT22;41590;53.366;5.212;2022-09-21T23:43:55;9.10;99.90
55693;DHT22;41590;53.366;5.212;2022-09-21T23:46:29;9.10;99.90
55693;DHT22;41590;53.366;5.212;2022-09-21T23:48:56;9.30;99.90
55693;DHT22;41590;53.366;5.212;2022-09-21T23:51:23;9.50;99.90
55693;DHT22;41590;53.366;5.212;2022-09-21T23:53:49;9.70;99.90
55693;DHT22;41590;53.366;5.212;2022-09-21T23:56:17;9.80;99.90